Time;durP1;ratioP1;P1;durP2;ratioP2;P2;SDS_P1;SDS_P2;PMS_P1;PMS_P2;Temp;Humidity;BMP_temperature;BMP_pressure;BME280_temperature;BME280_humidity;BME280_pressure;Samples;Min_cycle;Max_cycle;Signal;HPM_P1;HPM_P2
2023/08/23 00:01:51;;;;;;;4.50;4.10;;;16.60;99.90;;;;;;5046212;28;20515;-72
2023/08/23 00:04:19;;;;;;;5.10;4.10;;;16.60;99.90;;;;;;5044741;28;20635;-71
2023/08/23 00:06:45;;;;;;;5.90;4.20;;;16.60;99.90;;;;;;5046691;28;20196;-71
2023/08/23 00:09:11;;;;;;;4.87;3.90;;;16.60;99.90;;;;;;5046981;28;20514;-71
2023/08/23 00:11:36;;;;;;;4.40;4.00;;;16.60;99.90;;;;;;5047563;28;20818;-71
2023/08/23 00:14:02;;;;;;;5.83;3.60;;;16.50;99.90;;;;;;5047132;28;20461;-71
2023/08/23 00:16:28;;;;;;;3.90;3.60;;;16.50;99.90;;;;;;5046802;28;20178;-71
2023/08/23 00:18:54;;;;;;;4.77;3.57;;;16.50;99.90;;;;;;5047302;28;20432;-71
2023/08/23 00:21:20;;;;;;;3.87;3.33;;;16.50;99.90;;;;;;5047131;28;20496;-71
2023/08/23 00:23:46;;;;;;;6.43;4.40;;;16.50;99.90;;;;;;5047200;28;20503;-71
2023/08/23 00:26:11;;;;;;;4.77;4.13;;;16.50;99.90;;;;;;5047270;28;20237;-72
2023/08/23 00:28:41;;;;;;;3.97;3.67;;;16.40;99.90;;;;;;5046695;28;20209;-71
2023/08/23 00:31:07;;;;;;;3.70;3.40;;;16.40;99.90;;;;;;5047155;28;20193;-71
2023/08/23 00:33:32;;;;;;;6.10;4.33;;;16.40;99.90;;;;;;5047896;28;21169;-71
2023/08/23 00:35:58;;;;;;;5.47;4.13;;;16.40;99.90;;;;;;5047018;28;20208;-71
2023/08/23 00:38:24;;;;;;;4.40;3.60;;;16.40;99.90;;;;;;5046827;28;20202;-71
2023/08/23 00:40:50;;;;;;;4.83;4.00;;;16.50;99.90;;;;;;5046101;28;20186;-71
2023/08/23 00:43:15;;;;;;;4.93;4.20;;;16.50;99.90;;;;;;5063339;28;20182;-71
2023/08/23 00:45:44;;;;;;;8.33;4.63;;;16.60;99.90;;;;;;5059866;28;20446;-72
2023/08/23 00:48:12;;;;;;;9.50;5.20;;;16.50;99.90;;;;;;5057653;28;20323;-71
2023/08/23 00:50:40;;;;;;;5.40;4.80;;;16.50;99.90;;;;;;5057809;28;20463;-71
2023/08/23 00:53:07;;;;;;;5.93;5.10;;;16.50;99.90;;;;;;5052220;28;20415;-72
2023/08/23 00:55:34;;;;;;;5.40;4.90;;;16.50;99.90;;;;;;5047432;28;20416;-71
2023/08/23 00:58:01;;;;;;;5.03;4.63;;;16.40;99.90;;;;;;5047003;28;20763;-71
2023/08/23 01:00:27;;;;;;;5.87;5.17;;;16.40;99.90;;;;;;5045211;28;20416;-71
2023/08/23 01:02:53;;;;;;;5.30;4.23;;;16.40;99.90;;;;;;5047276;28;20447;-71
2023/08/23 01:05:25;;;;;;;5.57;4.70;;;16.40;99.90;;;;;;5046704;28;20463;-72
2023/08/23 01:08:20;;;;;;;5.03;4.53;;;16.30;99.90;;;;;;5049116;28;20446;-71
2023/08/23 01:10:57;;;;;;;7.17;4.77;;;16.30;99.90;;;;;;5031103;28;20474;-71
2023/08/23 01:13:31;;;;;;;5.07;4.67;;;16.30;99.90;;;;;;5049244;28;20611;-71
2023/08/23 01:15:58;;;;;;;5.37;4.87;;;16.30;99.90;;;;;;5049935;28;20415;-71
2023/08/23 01:18:24;;;;;;;5.37;4.77;;;16.20;99.90;;;;;;5049773;28;20434;-71
2023/08/23 01:20:53;;;;;;;7.80;4.43;;;16.20;99.90;;;;;;5050133;28;20412;-72
2023/08/23 01:23:19;;;;;;;5.13;4.63;;;16.20;99.90;;;;;;5050255;28;20432;-71
2023/08/23 01:25:50;;;;;;;7.50;4.50;;;16.10;99.90;;;;;;5049756;28;21043;-71
2023/08/23 01:28:16;;;;;;;5.77;4.30;;;16.20;99.90;;;;;;5049497;28;21121;-71
2023/08/23 01:30:42;;;;;;;4.93;4.40;;;16.20;99.90;;;;;;5042103;28;20467;-71
2023/08/23 01:33:31;;;;;;;5.73;4.03;;;16.20;99.90;;;;;;5049082;28;20438;-71
2023/08/23 01:36:36;;;;;;;5.47;3.83;;;16.10;99.90;;;;;;5049331;28;20213;-71
2023/08/23 01:39:04;;;;;;;6.37;4.50;;;16.20;99.90;;;;;;5012291;28;20454;-71
2023/08/23 01:41:30;;;;;;;6.50;4.30;;;16.20;99.90;;;;;;5007325;28;20504;-71
2023/08/23 01:43:56;;;;;;;4.50;3.83;;;16.20;99.90;;;;;;5025748;28;20883;-71
2023/08/23 01:46:22;;;;;;;5.63;3.93;;;16.20;99.90;;;;;;5048892;28;20787;-71
2023/08/23 01:48:48;;;;;;;7.83;4.23;;;16.20;99.90;;;;;;5049462;28;20452;-71
2023/08/23 01:51:14;;;;;;;4.47;4.07;;;16.20;99.90;;;;;;5047825;28;20237;-71
2023/08/23 01:53:39;;;;;;;4.87;4.20;;;16.10;99.90;;;;;;5049480;28;20178;-71
2023/08/23 01:56:05;;;;;;;5.50;4.97;;;16.10;99.90;;;;;;5048900;28;20284;-71
2023/08/23 01:58:31;;;;;;;4.73;4.10;;;16.00;99.90;;;;;;5048823;28;20200;-71
2023/08/23 02:00:58;;;;;;;5.00;4.50;;;16.10;99.90;;;;;;5048204;28;20647;-71
2023/08/23 02:03:24;;;;;;;5.20;4.70;;;16.10;99.90;;;;;;5050353;28;20542;-71
2023/08/23 02:05:49;;;;;;;9.50;4.63;;;16.00;99.90;;;;;;5048849;28;20428;-71
2023/08/23 02:08:15;;;;;;;9.20;4.70;;;16.00;99.90;;;;;;5048332;28;20221;-71
2023/08/23 02:10:42;;;;;;;6.23;4.03;;;16.00;99.90;;;;;;5047778;28;20898;-71
2023/08/23 02:13:07;;;;;;;5.10;4.50;;;16.00;99.90;;;;;;5047935;28;20185;-71
2023/08/23 02:15:33;;;;;;;4.80;3.73;;;16.00;99.90;;;;;;5048271;28;20428;-71
2023/08/23 02:17:59;;;;;;;4.60;4.20;;;15.90;99.90;;;;;;5047502;28;20205;-71
2023/08/23 02:20:24;;;;;;;3.90;3.60;;;15.90;99.90;;;;;;5048326;28;21386;-71
2023/08/23 02:22:50;;;;;;;3.80;3.50;;;15.80;99.90;;;;;;5049092;28;20182;-71
2023/08/23 02:25:16;;;;;;;6.20;4.03;;;15.80;99.90;;;;;;5037429;28;20293;-71
2023/08/23 02:27:41;;;;;;;5.50;4.07;;;15.80;99.90;;;;;;5047975;28;20213;-71
2023/08/23 02:30:08;;;;;;;3.97;3.57;;;15.80;99.90;;;;;;5048436;28;20202;-72
2023/08/23 02:32:34;;;;;;;6.70;4.30;;;15.80;99.90;;;;;;5048734;28;20232;-72
2023/08/23 02:35:02;;;;;;;4.00;3.60;;;15.70;99.90;;;;;;5048701;28;20416;-72
2023/08/23 02:37:27;;;;;;;5.90;4.10;;;15.70;99.90;;;;;;5048050;28;20511;-72
2023/08/23 02:39:53;;;;;;;7.07;4.37;;;15.70;99.90;;;;;;5048846;28;20554;-72
2023/08/23 02:42:19;;;;;;;3.77;3.47;;;15.70;99.90;;;;;;5047604;28;20197;-72
2023/08/23 02:44:44;;;;;;;5.37;4.03;;;15.70;99.90;;;;;;5048308;28;20184;-72
2023/08/23 02:47:10;;;;;;;5.73;4.40;;;15.70;99.90;;;;;;5048153;28;20635;-72
2023/08/23 02:49:36;;;;;;;4.93;4.43;;;15.60;99.90;;;;;;5048439;28;20280;-71
2023/08/23 02:52:02;;;;;;;5.40;4.37;;;15.60;99.90;;;;;;5048534;28;20182;-71
2023/08/23 02:54:28;;;;;;;5.90;4.23;;;15.60;99.90;;;;;;5048387;28;20185;-72
2023/08/23 02:56:54;;;;;;;4.67;4.20;;;15.60;99.90;;;;;;5047488;28;20404;-72
2023/08/23 02:59:20;;;;;;;4.60;4.20;;;15.60;99.90;;;;;;5047402;28;20197;-71
2023/08/23 03:01:45;;;;;;;4.13;3.83;;;15.60;99.90;;;;;;5046940;28;20494;-71
2023/08/23 03:04:11;;;;;;;4.97;4.47;;;15.60;99.90;;;;;;5048418;28;20811;-72
2023/08/23 03:06:37;;;;;;;4.80;3.93;;;15.60;99.90;;;;;;5047461;28;20666;-71
2023/08/23 03:09:03;;;;;;;5.00;4.60;;;15.60;99.90;;;;;;5046571;28;20209;-72
2023/08/23 03:11:28;;;;;;;7.07;4.47;;;15.60;99.90;;;;;;5048326;28;20177;-72
2023/08/23 03:13:55;;;;;;;6.20;5.47;;;15.60;99.90;;;;;;5048267;28;20647;-71
2023/08/23 03:16:21;;;;;;;6.77;5.33;;;15.60;99.90;;;;;;5047509;28;20207;-72
2023/08/23 03:18:46;;;;;;;5.77;5.17;;;15.60;99.90;;;;;;5047984;28;20432;-72
2023/08/23 03:21:12;;;;;;;6.77;5.43;;;15.60;99.90;;;;;;5047721;28;20347;-72
2023/08/23 03:23:39;;;;;;;4.60;4.20;;;15.60;99.90;;;;;;5048126;28;20655;-72
2023/08/23 03:26:05;;;;;;;8.07;5.03;;;15.60;99.90;;;;;;5047376;28;20196;-71
2023/08/23 03:28:30;;;;;;;6.67;4.90;;;15.60;99.90;;;;;;5047259;28;20440;-72
2023/08/23 03:31:03;;;;;;;6.30;4.70;;;15.60;99.90;;;;;;5047636;28;20799;-72
2023/08/23 03:33:29;;;;;;;5.80;4.83;;;15.70;99.90;;;;;;5063404;28;20562;-72
2023/08/23 03:35:55;;;;;;;7.60;5.03;;;15.60;99.90;;;;;;5047450;28;20420;-71
2023/08/23 03:38:21;;;;;;;5.60;3.80;;;15.70;99.90;;;;;;5046827;28;20201;-72
2023/08/23 03:40:46;;;;;;;4.07;3.70;;;15.80;99.90;;;;;;5047832;28;20181;-72
2023/08/23 03:43:12;;;;;;;5.10;4.43;;;15.80;99.90;;;;;;5046478;28;20260;-72
2023/08/23 03:45:46;;;;;;;6.63;4.17;;;15.80;99.90;;;;;;5047600;28;20423;-71
2023/08/23 03:48:12;;;;;;;4.93;3.77;;;15.70;99.90;;;;;;5045952;28;20198;-72
2023/08/23 03:50:37;;;;;;;4.73;3.87;;;15.70;99.90;;;;;;5047946;28;20460;-72
2023/08/23 03:53:03;;;;;;;4.40;4.00;;;15.70;99.90;;;;;;5047807;28;20181;-72
2023/08/23 03:55:29;;;;;;;8.93;4.50;;;15.70;99.90;;;;;;5047417;28;20178;-71
2023/08/23 03:57:54;;;;;;;5.53;4.20;;;15.60;99.90;;;;;;5047303;28;20635;-71
2023/08/23 04:00:20;;;;;;;6.50;4.40;;;15.50;99.90;;;;;;5045801;28;20170;-72
2023/08/23 04:02:46;;;;;;;4.77;3.77;;;15.40;99.90;;;;;;5046598;28;20207;-72
2023/08/23 04:05:12;;;;;;;4.33;3.93;;;15.40;99.90;;;;;;5047699;28;20264;-71
2023/08/23 04:07:39;;;;;;;5.57;4.27;;;15.40;99.90;;;;;;5050781;28;20524;-72
2023/08/23 04:10:06;;;;;;;4.30;3.90;;;15.50;99.90;;;;;;5063318;28;20263;-72
2023/08/23 04:12:31;;;;;;;5.73;4.07;;;15.50;99.90;;;;;;5058224;28;20412;-72
2023/08/23 04:14:57;;;;;;;5.03;4.10;;;15.50;99.90;;;;;;5056512;28;20427;-72
2023/08/23 04:17:24;;;;;;;5.93;4.27;;;15.40;99.90;;;;;;5047726;28;20231;-72
2023/08/23 04:19:49;;;;;;;5.00;4.37;;;15.40;99.90;;;;;;5030352;28;20178;-72
2023/08/23 04:22:15;;;;;;;5.33;4.83;;;15.40;99.90;;;;;;5046880;28;20423;-72
2023/08/23 04:24:41;;;;;;;5.00;4.20;;;15.30;99.90;;;;;;5047286;28;20186;-72
2023/08/23 04:27:07;;;;;;;5.80;5.03;;;15.30;99.90;;;;;;5047031;28;20447;-72
2023/08/23 04:29:33;;;;;;;6.00;5.33;;;15.30;99.90;;;;;;5046845;28;20674;-72
2023/08/23 04:31:59;;;;;;;6.27;5.20;;;15.30;99.90;;;;;;5047360;28;20198;-72
2023/08/23 04:34:25;;;;;;;5.93;5.00;;;15.30;99.90;;;;;;5047565;28;20939;-72
2023/08/23 04:36:50;;;;;;;6.57;5.00;;;15.30;99.90;;;;;;5045103;28;20523;-72
2023/08/23 04:39:16;;;;;;;6.37;4.70;;;15.30;99.90;;;;;;5047547;28;20198;-72
2023/08/23 04:41:41;;;;;;;5.47;4.97;;;15.30;99.90;;;;;;5048299;28;20288;-72
2023/08/23 04:44:07;;;;;;;8.37;4.60;;;15.30;99.90;;;;;;5050365;28;20208;-72
2023/08/23 04:46:33;;;;;;;5.83;4.60;;;15.30;99.90;;;;;;5050377;28;20182;-72
2023/08/23 04:48:58;;;;;;;8.63;5.63;;;15.30;99.90;;;;;;5049501;28;20642;-72
2023/08/23 04:51:24;;;;;;;6.60;5.00;;;15.40;99.90;;;;;;5051346;28;20170;-72
2023/08/23 04:53:50;;;;;;;6.47;5.03;;;15.40;99.90;;;;;;5050967;28;20174;-72
2023/08/23 04:56:15;;;;;;;6.33;5.73;;;15.40;99.90;;;;;;5049388;28;20174;-72
2023/08/23 04:58:41;;;;;;;5.83;5.23;;;15.40;99.90;;;;;;5050531;28;20495;-72
2023/08/23 05:01:07;;;;;;;6.10;5.23;;;15.40;99.90;;;;;;5048257;28;20178;-71
2023/08/23 05:03:35;;;;;;;7.47;5.80;;;15.40;99.90;;;;;;5049548;28;20182;-71
2023/08/23 05:06:01;;;;;;;8.27;6.27;;;15.50;99.90;;;;;;5050341;28;20987;-71
2023/08/23 05:08:28;;;;;;;8.00;6.47;;;15.50;99.90;;;;;;5048278;28;20883;-70
2023/08/23 05:10:54;;;;;;;7.40;6.13;;;15.50;99.90;;;;;;5046235;28;20490;-70
2023/08/23 05:13:21;;;;;;;8.13;6.50;;;15.50;99.90;;;;;;5049103;28;20523;-71
2023/08/23 05:15:53;;;;;;;8.57;5.50;;;15.50;99.90;;;;;;5046709;28;20473;-72
2023/08/23 05:18:19;;;;;;;7.33;5.87;;;15.50;99.90;;;;;;5049870;28;20866;-72
2023/08/23 05:20:45;;;;;;;6.33;5.73;;;15.50;99.90;;;;;;5050461;28;20424;-72
2023/08/23 05:23:11;;;;;;;8.17;5.37;;;15.50;99.90;;;;;;5049959;28;20481;-72
2023/08/23 05:25:37;;;;;;;5.87;5.27;;;15.60;99.90;;;;;;5049359;28;20417;-71
2023/08/23 05:28:03;;;;;;;8.47;6.50;;;15.60;99.90;;;;;;5049247;28;20202;-71
2023/08/23 05:30:29;;;;;;;6.20;5.50;;;15.60;99.90;;;;;;5049033;28;20209;-71
2023/08/23 05:32:55;;;;;;;9.17;7.37;;;15.70;99.90;;;;;;5048679;28;20280;-71
2023/08/23 05:35:21;;;;;;;7.23;6.40;;;15.80;99.90;;;;;;5049705;28;20495;-71
2023/08/23 05:37:46;;;;;;;6.90;6.20;;;15.80;99.90;;;;;;5049237;28;21016;-71
2023/08/23 05:40:12;;;;;;;10.67;7.07;;;15.90;99.90;;;;;;5048205;28;20213;-71
2023/08/23 05:42:37;;;;;;;7.87;7.07;;;16.00;99.90;;;;;;5044620;28;20277;-72
2023/08/23 05:45:03;;;;;;;8.10;7.40;;;16.20;99.90;;;;;;5040209;28;20194;-71
2023/08/23 05:47:29;;;;;;;9.00;6.97;;;16.30;99.90;;;;;;5048802;28;20208;-71
2023/08/23 05:49:55;;;;;;;8.30;6.73;;;16.40;99.90;;;;;;5050038;28;20513;-72
2023/08/23 05:52:20;;;;;;;9.20;6.37;;;16.50;99.90;;;;;;5041988;28;20178;-71
2023/08/23 05:54:46;;;;;;;8.33;7.20;;;16.70;99.90;;;;;;5039313;28;20174;-71
2023/08/23 05:57:12;;;;;;;11.80;7.30;;;16.90;99.90;;;;;;5034045;28;20187;-71
2023/08/23 05:59:37;;;;;;;8.07;7.23;;;17.10;99.90;;;;;;5029907;28;20206;-71
2023/08/23 06:02:03;;;;;;;7.90;7.10;;;17.20;99.90;;;;;;5034983;28;20233;-71
2023/08/23 06:04:29;;;;;;;9.27;7.57;;;17.30;99.90;;;;;;5033738;28;20225;-71
2023/08/23 06:06:55;;;;;;;8.47;7.07;;;17.40;99.90;;;;;;5029516;28;20244;-71
2023/08/23 06:09:21;;;;;;;7.10;6.03;;;17.50;99.90;;;;;;5043777;28;20217;-71
2023/08/23 06:11:46;;;;;;;9.40;7.73;;;17.70;99.90;;;;;;5046203;28;20204;-71
2023/08/23 06:14:18;;;;;;;8.60;7.17;;;18.00;99.90;;;;;;5038750;28;20475;-71
2023/08/23 06:16:44;;;;;;;8.67;6.73;;;18.20;99.90;;;;;;5045435;28;20200;-71
2023/08/23 06:19:11;;;;;;;8.20;5.90;;;18.30;99.90;;;;;;5043566;28;20846;-71
2023/08/23 06:21:37;;;;;;;10.53;6.90;;;18.30;99.90;;;;;;5043756;28;20213;-72
2023/08/23 06:24:03;;;;;;;7.10;6.40;;;18.40;99.90;;;;;;5049184;28;20417;-71
2023/08/23 06:26:29;;;;;;;10.13;7.40;;;18.40;99.90;;;;;;5048387;28;20488;-71
2023/08/23 06:28:55;;;;;;;8.07;7.17;;;18.40;99.90;;;;;;5051673;28;20483;-72
2023/08/23 06:31:21;;;;;;;7.83;6.20;;;18.30;99.90;;;;;;5048615;28;20423;-72
2023/08/23 06:33:47;;;;;;;12.33;7.60;;;18.20;99.90;;;;;;5047714;28;20723;-71
2023/08/23 06:36:12;;;;;;;9.17;6.63;;;18.30;99.90;;;;;;5048618;28;20189;-71
2023/08/23 06:38:40;;;;;;;8.90;7.50;;;18.50;99.90;;;;;;5036925;28;20556;-71
2023/08/23 06:41:06;;;;;;;8.50;7.50;;;18.60;99.90;;;;;;5039368;28;20166;-71
2023/08/23 06:43:31;;;;;;;7.07;6.37;;;18.70;99.90;;;;;;5038570;28;20408;-71
2023/08/23 06:45:57;;;;;;;8.83;7.23;;;18.80;99.90;;;;;;5031863;28;20647;-71
2023/08/23 06:48:23;;;;;;;7.37;5.77;;;18.80;99.90;;;;;;5028181;28;20194;-71
2023/08/23 06:50:48;;;;;;;9.20;7.80;;;18.80;99.90;;;;;;5054466;28;20315;-72
2023/08/23 06:53:14;;;;;;;9.50;7.40;;;18.80;99.90;;;;;;5050425;28;20200;-71
2023/08/23 06:55:41;;;;;;;9.33;8.30;;;18.80;99.90;;;;;;5044930;28;20193;-71
2023/08/23 06:58:07;;;;;;;7.67;6.70;;;18.80;99.90;;;;;;5042452;28;20198;-71
2023/08/23 07:00:34;;;;;;;10.50;8.07;;;18.80;99.90;;;;;;5046950;28;20447;-71
2023/08/23 07:03:01;;;;;;;12.53;8.30;;;18.80;99.90;;;;;;5031139;28;20421;-72
2023/08/23 07:05:26;;;;;;;11.80;9.03;;;18.80;99.90;;;;;;5044698;28;20527;-71
2023/08/23 07:07:52;;;;;;;13.90;10.40;;;18.80;99.90;;;;;;5047303;28;20550;-72
2023/08/23 07:10:18;;;;;;;13.47;10.63;;;19.00;99.90;;;;;;5046812;28;20267;-71
2023/08/23 07:12:44;;;;;;;11.20;8.60;;;19.10;99.90;;;;;;5046962;28;20404;-72
2023/08/23 07:15:10;;;;;;;13.17;9.90;;;19.40;99.90;;;;;;5046589;28;20177;-71
2023/08/23 07:17:36;;;;;;;12.43;10.10;;;19.60;99.90;;;;;;5045957;28;20428;-71
2023/08/23 07:20:05;;;;;;;12.83;10.10;;;19.80;99.90;;;;;;5046924;28;20223;-71
2023/08/23 07:22:31;;;;;;;16.90;11.10;;;20.00;99.90;;;;;;5048181;28;20775;-71
2023/08/23 07:24:57;;;;;;;13.50;9.33;;;20.10;99.90;;;;;;5048447;28;20412;-71
2023/08/23 07:27:23;;;;;;;11.30;9.53;;;20.30;99.90;;;;;;5047304;28;20192;-71
2023/08/23 07:29:48;;;;;;;15.20;11.10;;;20.40;99.90;;;;;;5036300;28;20206;-71
2023/08/23 07:32:14;;;;;;;11.90;10.53;;;20.50;99.90;;;;;;5051249;28;20185;-72
2023/08/23 07:34:40;;;;;;;13.00;8.37;;;20.60;99.90;;;;;;5054784;28;20186;-72
2023/08/23 07:37:06;;;;;;;13.30;9.73;;;20.70;99.90;;;;;;5057675;28;20174;-71
2023/08/23 07:39:32;;;;;;;13.00;9.20;;;20.80;99.90;;;;;;5048970;28;20435;-72
2023/08/23 07:41:58;;;;;;;14.23;9.70;;;20.90;99.90;;;;;;5048626;28;20503;-71
2023/08/23 07:44:24;;;;;;;13.10;10.13;;;20.90;99.90;;;;;;5046782;28;20496;-72
2023/08/23 07:46:50;;;;;;;15.00;9.90;;;21.00;99.90;;;;;;5046065;28;20181;-71
2023/08/23 07:49:16;;;;;;;17.17;9.07;;;21.10;99.90;;;;;;5047776;28;20332;-72
2023/08/23 07:51:41;;;;;;;12.33;8.93;;;21.10;99.90;;;;;;5047928;28;20177;-71
2023/08/23 07:54:07;;;;;;;12.63;10.17;;;21.10;99.90;;;;;;5047691;28;20405;-71
2023/08/23 07:56:33;;;;;;;15.33;9.50;;;21.20;99.90;;;;;;5045226;28;20176;-71
2023/08/23 07:58:59;;;;;;;15.80;9.97;;;21.20;99.90;;;;;;5046718;28;20272;-71
2023/08/23 08:01:26;;;;;;;12.83;9.37;;;21.20;99.90;;;;;;5047481;28;20506;-71
2023/08/23 08:03:52;;;;;;;11.73;9.20;;;21.30;99.90;;;;;;5047632;28;20925;-71
2023/08/23 08:06:18;;;;;;;9.27;8.37;;;21.20;99.90;;;;;;5047242;28;20408;-71
2023/08/23 08:08:45;;;;;;;13.33;9.60;;;21.30;99.90;;;;;;5046420;28;20440;-71
2023/08/23 08:11:12;;;;;;;12.13;7.60;;;21.30;99.90;;;;;;5047653;28;20970;-71
2023/08/23 08:13:39;;;;;;;9.70;8.20;;;21.30;99.90;;;;;;5047353;28;20423;-71
2023/08/23 08:16:13;;;;;;;10.73;6.90;;;21.30;99.90;;;;;;5047345;28;20487;-71
2023/08/23 08:18:39;;;;;;;10.37;7.60;;;21.40;99.90;;;;;;5049759;28;20863;-71
2023/08/23 08:21:05;;;;;;;11.47;7.77;;;21.40;99.90;;;;;;5050277;28;20518;-71
2023/08/23 08:23:31;;;;;;;10.00;7.23;;;21.40;99.90;;;;;;5051322;28;20491;-71
2023/08/23 08:25:57;;;;;;;11.73;7.90;;;21.40;99.90;;;;;;5051100;28;20188;-71
2023/08/23 08:28:23;;;;;;;10.03;6.50;;;21.50;99.90;;;;;;5050696;28;21005;-71
2023/08/23 08:30:49;;;;;;;8.33;6.27;;;21.60;99.90;;;;;;5050791;28;20454;-71
2023/08/23 08:33:16;;;;;;;16.70;7.03;;;21.60;99.90;;;;;;5051580;28;20496;-71
2023/08/23 08:35:42;;;;;;;10.10;7.30;;;21.70;99.90;;;;;;5050676;28;20197;-71
2023/08/23 08:38:08;;;;;;;8.97;7.37;;;21.70;99.90;;;;;;5050761;28;20824;-71
2023/08/23 08:40:35;;;;;;;6.87;6.10;;;21.80;99.90;;;;;;5051071;28;20411;-71
2023/08/23 08:43:01;;;;;;;7.53;5.87;;;21.80;99.90;;;;;;5051367;28;20226;-71
2023/08/23 08:45:27;;;;;;;8.00;6.80;;;21.80;99.90;;;;;;5050790;28;20757;-71
2023/08/23 08:47:53;;;;;;;15.10;6.63;;;21.70;99.90;;;;;;5050272;28;20546;-71
2023/08/23 08:50:19;;;;;;;7.87;6.83;;;21.80;99.90;;;;;;5049638;28;20219;-71
2023/08/23 08:52:56;;;;;;;10.70;6.33;;;21.80;99.90;;;;;;5050676;28;20182;-71
2023/08/23 08:55:23;;;;;;;7.80;5.67;;;21.80;99.90;;;;;;5049295;28;20404;-71
2023/08/23 08:57:52;;;;;;;8.30;6.20;;;21.80;99.90;;;;;;5050070;28;20428;-71
2023/08/23 09:00:21;;;;;;;6.10;5.20;;;21.90;99.90;;;;;;5050808;28;20442;-71
2023/08/23 09:02:47;;;;;;;7.63;4.80;;;22.00;99.90;;;;;;5050743;28;20424;-71
2023/08/23 09:05:14;;;;;;;7.40;5.43;;;22.00;99.90;;;;;;5050493;28;20769;-71
2023/08/23 09:07:41;;;;;;;7.50;5.23;;;22.10;99.90;;;;;;5049871;28;20985;-71
2023/08/23 09:10:07;;;;;;;7.00;5.73;;;22.20;99.90;;;;;;5049231;28;21493;-71
2023/08/23 09:12:33;;;;;;;7.93;6.10;;;22.30;99.90;;;;;;5050950;28;21162;-71
2023/08/23 09:15:06;;;;;;;6.83;5.60;;;22.40;99.90;;;;;;5050098;28;20412;-71
2023/08/23 09:17:36;;;;;;;7.57;5.70;;;22.50;99.90;;;;;;5048837;28;20174;-71
2023/08/23 09:20:06;;;;;;;8.23;4.83;;;22.60;99.90;;;;;;5050504;28;21103;-71
2023/08/23 09:22:33;;;;;;;7.50;5.23;;;22.70;99.90;;;;;;5050154;28;20466;-71
2023/08/23 09:25:00;;;;;;;8.00;5.20;;;22.80;99.90;;;;;;5050037;28;20503;-71
2023/08/23 09:27:26;;;;;;;8.67;6.17;;;22.90;99.90;;;;;;5049193;28;20792;-71
2023/08/23 09:29:56;;;;;;;8.50;6.67;;;23.00;99.90;;;;;;5049638;28;20455;-71
2023/08/23 09:32:21;;;;;;;7.77;6.20;;;23.00;99.90;;;;;;5048999;28;20198;-71
2023/08/23 09:34:48;;;;;;;6.63;5.60;;;23.10;99.90;;;;;;5049562;28;20405;-71
2023/08/23 09:37:14;;;;;;;7.60;5.57;;;23.20;99.90;;;;;;5049441;28;20178;-71
2023/08/23 09:39:39;;;;;;;7.70;6.40;;;23.30;99.90;;;;;;5049765;28;20429;-71
2023/08/23 09:42:06;;;;;;;7.30;6.10;;;23.50;99.90;;;;;;5050111;28;20174;-71
2023/08/23 09:44:40;;;;;;;10.50;6.23;;;23.60;99.90;;;;;;5050073;28;20726;-71
2023/08/23 09:47:19;;;;;;;9.77;6.50;;;23.70;99.90;;;;;;5049239;28;20419;-71
2023/08/23 09:49:47;;;;;;;5.70;5.10;;;23.80;99.90;;;;;;5049800;28;20455;-71
2023/08/23 09:52:12;;;;;;;7.30;6.60;;;23.90;99.90;;;;;;5050045;28;21192;-71
2023/08/23 09:55:02;;;;;;;7.23;4.50;;;24.00;99.90;;;;;;5049195;28;20408;-71
2023/08/23 09:57:28;;;;;;;8.23;6.00;;;24.20;99.90;;;;;;5048920;28;20198;-71
2023/08/23 09:59:54;;;;;;;8.70;6.33;;;24.30;99.90;;;;;;5049813;28;20432;-71
2023/08/23 10:02:20;;;;;;;6.70;5.03;;;24.40;99.90;;;;;;5049381;28;20609;-71
2023/08/23 10:04:46;;;;;;;7.00;4.70;;;24.60;99.90;;;;;;5049411;28;20404;-71
2023/08/23 10:07:15;;;;;;;7.63;5.77;;;24.70;99.90;;;;;;5048820;28;20562;-71
2023/08/23 10:09:43;;;;;;;5.23;4.50;;;24.80;99.90;;;;;;5049519;28;20940;-71
2023/08/23 10:12:10;;;;;;;8.03;5.10;;;24.90;99.90;;;;;;5049468;28;20411;-71
2023/08/23 10:14:41;;;;;;;5.50;4.13;;;24.90;99.90;;;;;;5049142;28;20494;-71
2023/08/23 10:17:09;;;;;;;6.50;4.33;;;24.90;99.90;;;;;;5047692;28;20408;-71
2023/08/23 10:19:36;;;;;;;5.47;4.30;;;25.00;99.90;;;;;;5049367;28;20597;-71
2023/08/23 10:22:05;;;;;;;6.97;5.30;;;25.10;99.90;;;;;;5049810;28;20858;-71
2023/08/23 10:24:31;;;;;;;7.77;4.73;;;25.20;99.90;;;;;;5049039;28;20461;-71
2023/08/23 10:27:06;;;;;;;5.50;3.70;;;25.30;99.90;;;;;;5048290;28;20416;-71
2023/08/23 10:29:34;;;;;;;5.47;4.13;;;25.40;99.90;;;;;;5051022;28;20462;-71
2023/08/23 10:32:13;;;;;;;4.97;4.23;;;25.40;99.90;;;;;;5048844;28;20502;-71
2023/08/23 10:34:42;;;;;;;7.87;4.83;;;25.50;99.90;;;;;;5049079;28;20409;-72
2023/08/23 10:37:17;;;;;;;5.17;3.90;;;25.50;99.90;;;;;;5048120;28;20412;-71
2023/08/23 10:39:54;;;;;;;5.60;4.00;;;25.40;99.90;;;;;;5048305;28;20414;-71
2023/08/23 10:42:21;;;;;;;3.60;3.30;;;25.50;99.90;;;;;;5049155;28;20481;-72
2023/08/23 10:44:57;;;;;;;9.23;4.40;;;25.60;99.90;;;;;;5048498;28;20454;-71
2023/08/23 10:47:24;;;;;;;7.70;4.77;;;25.60;99.90;;;;;;5048444;28;20427;-72
2023/08/23 10:49:51;;;;;;;4.80;3.23;;;25.50;99.90;;;;;;5049255;28;20527;-72
2023/08/23 10:52:17;;;;;;;6.63;3.87;;;25.30;99.90;;;;;;5054414;28;20427;-71
2023/08/23 10:54:42;;;;;;;5.93;3.90;;;25.20;99.90;;;;;;5063885;28;20436;-72
2023/08/23 10:57:09;;;;;;;5.53;3.80;;;25.20;99.90;;;;;;5060239;28;20428;-72
2023/08/23 10:59:35;;;;;;;4.37;3.97;;;25.30;99.90;;;;;;5057161;28;20554;-71
2023/08/23 11:02:01;;;;;;;4.47;3.50;;;25.40;99.90;;;;;;5050441;28;20416;-72
2023/08/23 11:04:27;;;;;;;5.63;4.10;;;25.50;99.90;;;;;;5048988;28;20417;-72
2023/08/23 11:06:52;;;;;;;6.33;3.50;;;25.60;99.90;;;;;;5047566;28;20227;-72
2023/08/23 11:09:18;;;;;;;3.50;2.93;;;25.70;99.90;;;;;;5048626;28;20213;-71
2023/08/23 11:11:44;;;;;;;5.20;4.70;;;25.80;99.90;;;;;;5048291;28;20177;-71
2023/08/23 11:14:10;;;;;;;3.60;3.30;;;26.00;99.90;;;;;;5048320;28;20184;-72
2023/08/23 11:16:38;;;;;;;4.00;3.43;;;26.00;99.90;;;;;;5047319;28;20177;-72
2023/08/23 11:19:06;;;;;;;3.63;3.33;;;26.20;99.90;;;;;;5047115;28;20292;-71
2023/08/23 11:21:32;;;;;;;3.37;3.17;;;26.20;99.90;;;;;;5048247;28;20474;-72
2023/08/23 11:24:01;;;;;;;4.40;3.73;;;26.30;99.90;;;;;;5047835;28;20920;-72
2023/08/23 11:26:26;;;;;;;5.90;3.43;;;26.40;99.90;;;;;;5047224;28;20462;-71
2023/08/23 11:28:52;;;;;;;4.23;3.83;;;26.50;99.90;;;;;;5047499;28;20474;-72
2023/08/23 11:31:20;;;;;;;5.83;4.07;;;26.70;99.90;;;;;;5048206;28;20192;-72
2023/08/23 11:33:46;;;;;;;6.40;3.93;;;26.70;99.90;;;;;;5047904;28;20174;-71
2023/08/23 11:36:12;;;;;;;6.97;3.73;;;26.40;99.90;;;;;;5047141;28;20416;-71
2023/08/23 11:38:39;;;;;;;3.80;3.50;;;26.20;99.90;;;;;;5047089;28;20666;-72
2023/08/23 11:41:08;;;;;;;6.90;3.90;;;26.00;99.90;;;;;;5047473;28;20219;-72
2023/08/23 11:43:33;;;;;;;7.00;4.47;;;26.00;99.90;;;;;;5047819;28;20466;-71
2023/08/23 11:45:59;;;;;;;5.20;4.20;;;26.10;99.90;;;;;;5047294;28;20413;-72
2023/08/23 11:48:25;;;;;;;6.17;3.70;;;26.10;99.90;;;;;;5044137;28;20208;-72
2023/08/23 11:50:51;;;;;;;3.93;3.30;;;26.30;99.90;;;;;;5039632;28;20206;-72
2023/08/23 11:53:17;;;;;;;4.80;4.30;;;26.40;98.50;;;;;;5047542;28;20177;-71
2023/08/23 11:55:43;;;;;;;4.63;4.07;;;26.50;98.50;;;;;;5047227;28;20507;-72
2023/08/23 11:58:11;;;;;;;4.90;4.00;;;26.50;98.90;;;;;;5046144;28;20190;-72
2023/08/23 12:00:38;;;;;;;4.40;4.00;;;26.50;99.00;;;;;;5047488;28;20577;-72
2023/08/23 12:03:04;;;;;;;4.60;4.20;;;26.60;99.90;;;;;;5047338;28;20416;-72
2023/08/23 12:05:30;;;;;;;5.43;4.90;;;26.70;99.90;;;;;;5050340;28;20478;-72
2023/08/23 12:07:55;;;;;;;6.80;4.37;;;26.70;99.30;;;;;;5046861;28;20821;-72
2023/08/23 12:10:21;;;;;;;4.70;4.40;;;26.80;99.20;;;;;;5046858;28;20201;-71
2023/08/23 12:12:47;;;;;;;4.90;4.40;;;26.90;98.00;;;;;;5047386;28;20178;-72
2023/08/23 12:15:12;;;;;;;5.20;4.70;;;26.80;98.20;;;;;;5045564;28;20628;-72
2023/08/23 12:17:38;;;;;;;4.63;4.23;;;26.70;98.70;;;;;;5046487;28;20197;-72
2023/08/23 12:20:07;;;;;;;5.70;4.30;;;26.60;98.80;;;;;;5047203;28;20587;-72
2023/08/23 12:22:33;;;;;;;4.90;4.50;;;26.50;99.10;;;;;;5043579;28;20258;-71
2023/08/23 12:24:59;;;;;;;4.30;3.90;;;26.50;99.80;;;;;;5044364;28;20421;-72
2023/08/23 12:27:24;;;;;;;6.63;4.67;;;26.50;99.60;;;;;;5045124;28;20408;-72
2023/08/23 12:29:50;;;;;;;5.57;3.90;;;26.50;98.60;;;;;;5047127;28;20259;-71
2023/08/23 12:32:16;;;;;;;5.37;4.87;;;26.60;99.50;;;;;;5046895;28;20197;-72
2023/08/23 12:34:41;;;;;;;5.70;5.30;;;26.70;98.80;;;;;;5046628;28;20189;-71
2023/08/23 12:37:07;;;;;;;6.00;5.10;;;26.70;98.00;;;;;;5046434;28;20178;-72
2023/08/23 12:39:33;;;;;;;7.10;6.17;;;26.80;99.50;;;;;;5045329;28;20234;-70
2023/08/23 12:41:58;;;;;;;7.57;6.50;;;26.90;99.10;;;;;;5046920;28;20421;-70
2023/08/23 12:44:24;;;;;;;7.30;6.60;;;26.70;98.10;;;;;;5045431;28;20174;-70